createdAt,value
2023-02-21T00:00:22.468Z,22.77
2023-02-21T00:03:08.187Z,22.90
2023-02-21T00:05:54.378Z,21.38
2023-02-21T00:08:44.512Z,22.58
2023-02-21T00:11:33.515Z,21.45
2023-02-21T00:14:22.438Z,21.70
2023-02-21T00:17:17.653Z,21.35
2023-02-21T00:23:10.216Z,23.73
2023-02-21T00:25:58.256Z,22.30
2023-02-21T00:28:44.862Z,23.60
2023-02-21T00:31:35.674Z,21.52
2023-02-21T00:34:21.822Z,22.83
2023-02-21T00:37:14.109Z,23.65
2023-02-21T00:40:03.210Z,22.50
2023-02-21T00:43:06.845Z,20.48
2023-02-21T00:45:52.733Z,20.95
2023-02-21T00:48:49.213Z,21.77
2023-02-21T00:51:43.328Z,26.90
2023-02-21T00:54:30.582Z,21.88
2023-02-21T00:57:23.990Z,22.75
2023-02-21T01:00:15.532Z,24.30
2023-02-21T01:03:04.699Z,24.58
2023-02-21T01:05:52.861Z,23.85
2023-02-21T01:08:40.066Z,23.00
2023-02-21T01:11:30.015Z,21.85
2023-02-21T01:14:23.044Z,23.55
2023-02-21T01:17:13.440Z,23.25
2023-02-21T01:22:58.554Z,22.48
2023-02-21T01:25:49.636Z,21.08
2023-02-21T01:31:06.152Z,20.80
2023-02-21T01:33:58.028Z,23.05
2023-02-21T01:36:44.379Z,21.85
2023-02-21T01:39:37.928Z,22.55
2023-02-21T01:42:28.465Z,21.38
2023-02-21T01:45:36.109Z,21.80
2023-02-21T01:48:22.760Z,23.20
2023-02-21T01:51:11.606Z,22.13
2023-02-21T01:54:03.715Z,22.00
2023-02-21T01:56:51.080Z,21.15
2023-02-21T01:59:38.131Z,21.65
2023-02-21T02:02:33.893Z,20.63
2023-02-21T02:05:24.332Z,21.00
2023-02-21T02:08:14.731Z,23.10
2023-02-21T02:11:04.153Z,19.75
2023-02-21T02:13:56.815Z,20.20
2023-02-21T02:16:44.817Z,22.88
2023-02-21T02:19:21.713Z,21.85
2023-02-21T02:21:51.954Z,20.40
2023-02-21T02:24:48.257Z,21.67
2023-02-21T02:27:38.931Z,21.70
2023-02-21T02:30:08.577Z,20.77
2023-02-21T02:32:48.755Z,21.67
2023-02-21T02:35:29.098Z,20.63
2023-02-21T02:38:01.559Z,19.73
2023-02-21T02:40:33.725Z,20.05
2023-02-21T02:43:28.375Z,21.05
2023-02-21T02:46:10.260Z,21.13
2023-02-21T02:48:37.368Z,20.52
2023-02-21T02:51:11.615Z,20.55
2023-02-21T02:53:45.187Z,18.85
2023-02-21T02:56:21.066Z,19.60
2023-02-21T03:01:35.696Z,18.27
2023-02-21T03:04:20.080Z,18.23
2023-02-21T03:07:05.854Z,18.55
2023-02-21T03:09:36.023Z,18.05
2023-02-21T03:12:16.573Z,18.60
2023-02-21T03:18:08.267Z,16.50
2023-02-21T03:20:48.120Z,16.48
2023-02-21T03:23:19.447Z,18.20
2023-02-21T03:26:40.972Z,16.23
2023-02-21T03:29:13.902Z,16.08
2023-02-21T03:31:51.572Z,17.23
2023-02-21T03:34:24.443Z,16.10
2023-02-21T03:36:51.772Z,17.35
2023-02-21T03:39:26.622Z,17.05
2023-02-21T03:41:56.657Z,16.15
2023-02-21T03:44:27.456Z,16.08
2023-02-21T03:46:57.734Z,14.93
2023-02-21T03:49:27.897Z,17.13
2023-02-21T03:51:57.621Z,18.45
2023-02-21T03:54:25.571Z,17.57
2023-02-21T03:56:55.583Z,17.25
2023-02-21T03:59:30.142Z,15.70
2023-02-21T04:01:59.537Z,15.52
2023-02-21T04:04:29.427Z,15.20
2023-02-21T04:06:59.147Z,19.50
2023-02-21T04:09:27.003Z,15.43
2023-02-21T04:11:59.302Z,16.40
2023-02-21T04:14:30.786Z,16.33
2023-02-21T04:16:59.510Z,17.17
2023-02-21T04:19:29.238Z,17.98
2023-02-21T04:21:57.045Z,18.50
2023-02-21T04:24:29.339Z,18.90
2023-02-21T04:27:05.996Z,17.77
2023-02-21T04:29:35.918Z,21.63
2023-02-21T04:32:13.074Z,19.13
2023-02-21T04:34:40.569Z,19.25
2023-02-21T04:37:18.614Z,20.85
2023-02-21T04:39:48.256Z,21.65
2023-02-21T04:42:19.409Z,20.20
2023-02-21T04:44:55.014Z,20.65
2023-02-21T04:47:34.707Z,21.45
2023-02-21T04:50:03.289Z,20.95
2023-02-21T04:52:36.575Z,21.95
2023-02-21T04:55:08.958Z,22.15
2023-02-21T04:57:41.663Z,20.75
2023-02-21T05:00:14.388Z,24.05
2023-02-21T05:02:43.731Z,21.17
2023-02-21T05:05:12.912Z,22.70
2023-02-21T05:07:46.808Z,22.17
2023-02-21T05:10:17.732Z,22.33
2023-02-21T05:12:47.343Z,22.80
2023-02-21T05:15:25.226Z,24.65
2023-02-21T05:17:55.717Z,25.25
2023-02-21T05:20:28.574Z,22.40
2023-02-21T05:23:11.709Z,22.90
2023-02-21T05:25:40.436Z,23.27
2023-02-21T05:28:11.069Z,23.17
2023-02-21T05:33:15.830Z,24.70
2023-02-21T05:35:46.878Z,25.15
2023-02-21T05:38:17.326Z,23.35
2023-02-21T05:40:50.102Z,26.38
2023-02-21T05:43:29.073Z,25.10
2023-02-21T05:46:03.106Z,26.60
2023-02-21T05:48:41.954Z,25.40
2023-02-21T05:51:11.855Z,24.02
2023-02-21T05:53:44.098Z,25.23
2023-02-21T05:56:14.422Z,25.30
2023-02-21T05:58:48.036Z,27.67
2023-02-21T06:01:32.598Z,26.27
2023-02-21T06:04:02.221Z,24.48
2023-02-21T06:06:29.563Z,28.50
2023-02-21T06:08:59.184Z,25.90
2023-02-21T06:11:29.197Z,25.88
2023-02-21T06:14:08.983Z,29.08
2023-02-21T06:16:37.706Z,24.83
2023-02-21T06:19:07.118Z,28.23
2023-02-21T06:21:37.032Z,26.10
2023-02-21T06:24:07.972Z,25.98
2023-02-21T06:26:39.266Z,26.33
2023-02-21T06:29:06.769Z,25.45
2023-02-21T06:31:42.260Z,24.67
2023-02-21T06:34:09.617Z,25.70
2023-02-21T06:36:38.998Z,25.17
2023-02-21T06:39:08.518Z,27.73
2023-02-21T06:41:38.623Z,26.83
2023-02-21T06:44:05.961Z,25.13
2023-02-21T06:46:35.556Z,25.38
2023-02-21T06:49:04.218Z,24.40
2023-02-21T06:51:36.441Z,27.65
2023-02-21T06:54:12.941Z,23.60
2023-02-21T06:56:41.660Z,25.38
2023-02-21T06:59:13.235Z,25.88
2023-02-21T07:01:45.174Z,25.52
2023-02-21T07:04:15.218Z,24.40
2023-02-21T07:06:52.789Z,27.90
2023-02-21T07:09:28.512Z,24.25
2023-02-21T07:11:55.749Z,24.13
2023-02-21T07:14:26.442Z,24.88
2023-02-21T07:16:57.559Z,23.77
2023-02-21T07:19:32.371Z,24.80
2023-02-21T07:22:04.163Z,25.08
2023-02-21T07:24:31.405Z,23.15
2023-02-21T07:27:01.837Z,26.88
2023-02-21T07:32:20.094Z,24.38
2023-02-21T07:34:47.195Z,23.45
2023-02-21T07:37:36.464Z,22.35
2023-02-21T07:40:18.753Z,24.58
2023-02-21T07:42:52.475Z,21.05
2023-02-21T07:45:24.670Z,23.30
2023-02-21T07:48:17.243Z,22.85
2023-02-21T07:50:58.423Z,20.38
2023-02-21T07:53:34.156Z,21.30
2023-02-21T07:56:11.800Z,20.83
2023-02-21T07:58:44.255Z,20.95
2023-02-21T08:01:13.381Z,23.13
2023-02-21T08:03:51.993Z,21.75
2023-02-21T08:06:19.327Z,23.30
2023-02-21T08:08:46.646Z,20.13
2023-02-21T08:11:19.068Z,20.77
2023-02-21T08:13:58.609Z,20.58
2023-02-21T08:16:34.504Z,21.02
2023-02-21T08:19:09.232Z,20.20
2023-02-21T08:21:39.059Z,19.15
2023-02-21T08:24:06.521Z,20.58
2023-02-21T08:26:42.292Z,18.33
2023-02-21T08:29:11.053Z,19.13
2023-02-21T08:31:48.980Z,20.05
2023-02-21T08:34:18.962Z,18.95
2023-02-21T08:37:05.328Z,18.30
2023-02-21T08:39:36.550Z,17.05
2023-02-21T08:42:07.141Z,15.88
2023-02-21T08:47:04.844Z,15.95
2023-02-21T08:52:06.872Z,15.85
2023-02-21T08:54:36.166Z,14.73
2023-02-21T08:57:07.820Z,15.40
2023-02-21T08:59:50.641Z,14.23
2023-02-21T09:02:19.204Z,15.85
2023-02-21T09:05:01.546Z,16.38
2023-02-21T09:07:31.170Z,15.43
2023-02-21T09:10:01.348Z,16.13
2023-02-21T09:12:40.145Z,14.38
2023-02-21T09:15:38.091Z,16.50
2023-02-21T09:18:14.752Z,14.55
2023-02-21T09:20:53.946Z,14.73
2023-02-21T09:23:24.824Z,16.27
2023-02-21T09:25:57.172Z,16.50
2023-02-21T09:28:26.765Z,16.30
2023-02-21T09:30:57.001Z,15.17
2023-02-21T09:33:25.313Z,17.90
2023-02-21T09:35:54.168Z,16.38
2023-02-21T09:38:21.461Z,15.57
2023-02-21T09:40:56.092Z,17.33
2023-02-21T09:43:33.293Z,15.40
2023-02-21T09:46:03.127Z,16.38
2023-02-21T09:48:30.441Z,16.08
2023-02-21T09:50:59.332Z,15.55
2023-02-21T09:53:32.109Z,15.88
2023-02-21T09:56:01.280Z,15.02
2023-02-21T09:58:30.170Z,15.77
2023-02-21T10:01:07.477Z,14.70
2023-02-21T10:04:00.623Z,17.10
2023-02-21T10:06:30.722Z,17.80
2023-02-21T10:09:00.727Z,17.00
2023-02-21T10:11:42.394Z,19.67
2023-02-21T10:14:18.710Z,17.25
2023-02-21T10:16:48.915Z,17.67
2023-02-21T10:19:29.056Z,17.30
2023-02-21T10:21:58.793Z,16.35
2023-02-21T10:24:26.602Z,17.42
2023-02-21T10:26:59.001Z,17.58
2023-02-21T10:29:28.022Z,19.10
2023-02-21T10:32:02.439Z,17.10
2023-02-21T10:34:30.744Z,16.08
2023-02-21T10:37:00.073Z,17.95
2023-02-21T10:39:40.172Z,15.57
2023-02-21T10:42:10.085Z,16.90
2023-02-21T10:44:37.395Z,15.75
2023-02-21T10:47:21.835Z,17.52
2023-02-21T10:50:01.248Z,15.00
2023-02-21T10:52:28.490Z,15.05
2023-02-21T10:55:11.884Z,15.40
2023-02-21T10:57:45.906Z,14.80
2023-02-21T11:00:28.202Z,14.73
2023-02-21T11:02:57.184Z,14.38
2023-02-21T11:05:24.850Z,15.23
2023-02-21T11:08:03.051Z,14.52
2023-02-21T11:10:31.951Z,15.65
2023-02-21T11:13:02.935Z,14.52
2023-02-21T11:15:30.208Z,15.38
2023-02-21T11:18:05.091Z,13.85
2023-02-21T11:20:32.705Z,13.27
2023-02-21T11:22:59.926Z,13.27
2023-02-21T11:25:27.175Z,12.43
2023-02-21T11:28:05.168Z,14.65
2023-02-21T11:33:01.224Z,12.15
2023-02-21T11:35:31.145Z,12.55
2023-02-21T11:38:00.421Z,11.82
2023-02-21T11:40:29.347Z,12.35
2023-02-21T11:43:17.895Z,10.98
2023-02-21T11:45:59.535Z,12.43
2023-02-21T11:48:32.772Z,11.32
2023-02-21T11:51:02.069Z,10.65
2023-02-21T11:53:35.483Z,12.55
2023-02-21T11:56:08.502Z,11.52
2023-02-21T11:58:38.367Z,10.77
2023-02-21T12:01:08.934Z,11.10
2023-02-21T12:03:45.144Z,11.98
2023-02-21T12:06:36.149Z,10.95
2023-02-21T12:09:08.544Z,10.40
2023-02-21T12:11:36.801Z,10.52
2023-02-21T12:14:10.951Z,9.05
2023-02-21T12:16:43.825Z,10.88
2023-02-21T12:19:19.549Z,9.70
2023-02-21T12:22:02.950Z,10.50
2023-02-21T12:24:43.788Z,9.80
2023-02-21T12:27:26.859Z,8.65
2023-02-21T12:30:03.594Z,10.23
2023-02-21T12:32:51.361Z,9.23
2023-02-21T12:35:37.855Z,9.35
2023-02-21T12:38:10.777Z,7.88
2023-02-21T12:40:49.679Z,8.95
2023-02-21T12:43:16.758Z,9.45
2023-02-21T12:45:44.032Z,9.65
2023-02-21T12:48:19.176Z,8.93
2023-02-21T12:50:50.212Z,10.32
2023-02-21T12:53:21.530Z,9.52
2023-02-21T12:55:58.131Z,11.57
2023-02-21T12:58:25.293Z,10.88
2023-02-21T13:00:55.546Z,12.52
2023-02-21T13:05:52.891Z,10.55
2023-02-21T13:08:40.271Z,11.38
2023-02-21T13:11:14.323Z,12.73
2023-02-21T13:13:41.506Z,12.57
2023-02-21T13:16:11.352Z,12.05
2023-02-21T13:18:41.258Z,10.80
2023-02-21T13:21:24.433Z,11.68
2023-02-21T13:23:53.432Z,11.23
2023-02-21T13:26:29.563Z,9.90
2023-02-21T13:28:57.411Z,11.13
2023-02-21T13:31:29.106Z,11.73
2023-02-21T13:33:58.139Z,14.20
2023-02-21T13:36:34.739Z,13.55
2023-02-21T13:39:01.807Z,13.48
2023-02-21T13:41:30.292Z,13.38
2023-02-21T13:43:58.608Z,11.77
2023-02-21T13:46:31.596Z,13.10
2023-02-21T13:49:17.412Z,12.55
2023-02-21T13:51:48.017Z,11.27
2023-02-21T13:54:21.726Z,11.15
2023-02-21T13:56:50.092Z,11.70
2023-02-21T13:59:23.345Z,12.88
2023-02-21T14:01:51.233Z,13.60
2023-02-21T14:04:56.943Z,13.00
2023-02-21T14:07:42.680Z,12.30
2023-02-21T14:10:20.601Z,12.75
2023-02-21T14:12:53.128Z,12.60
2023-02-21T14:15:21.722Z,12.35
2023-02-21T14:17:54.554Z,14.02
2023-02-21T14:20:23.450Z,12.98
2023-02-21T14:22:53.912Z,13.20
2023-02-21T14:25:24.318Z,13.77
2023-02-21T14:27:56.001Z,14.20
2023-02-21T14:30:25.328Z,14.20
2023-02-21T14:32:58.107Z,13.23
2023-02-21T14:35:47.519Z,12.77
2023-02-21T14:38:31.491Z,15.10
2023-02-21T14:41:11.922Z,13.98
2023-02-21T14:43:55.995Z,15.20
2023-02-21T14:46:26.553Z,15.05
2023-02-21T14:49:26.579Z,14.73
2023-02-21T14:54:25.499Z,14.43
2023-02-21T14:57:00.008Z,13.90
2023-02-21T14:59:36.428Z,16.38
2023-02-21T15:02:21.742Z,15.80
2023-02-21T15:04:56.515Z,16.13
2023-02-21T15:07:32.184Z,17.65
2023-02-21T15:10:13.381Z,16.27
2023-02-21T15:12:53.102Z,17.13
2023-02-21T15:15:33.952Z,14.93
2023-02-21T15:18:12.070Z,16.60
2023-02-21T15:20:42.293Z,14.63
2023-02-21T15:23:19.981Z,16.67
2023-02-21T15:26:00.882Z,16.77
2023-02-21T15:28:31.841Z,18.00
2023-02-21T15:31:06.309Z,17.38
2023-02-21T15:33:42.881Z,14.70
2023-02-21T15:36:29.068Z,14.68
2023-02-21T15:39:17.634Z,14.18
2023-02-21T15:44:50.849Z,14.82
2023-02-21T15:47:19.719Z,15.82
2023-02-21T15:49:56.953Z,14.57
2023-02-21T15:52:53.039Z,15.20
2023-02-21T15:55:25.984Z,16.00
2023-02-21T15:58:00.427Z,17.13
2023-02-21T16:00:29.288Z,16.63
2023-02-21T16:03:18.198Z,17.27
2023-02-21T16:05:45.453Z,15.30
2023-02-21T16:08:17.099Z,16.50
2023-02-21T16:10:49.986Z,15.88
2023-02-21T16:13:17.357Z,17.65
2023-02-21T16:15:44.531Z,20.42
2023-02-21T16:18:17.193Z,18.15
2023-02-21T16:20:59.523Z,21.27
2023-02-21T16:23:31.330Z,22.60
2023-02-21T16:26:09.379Z,23.80
2023-02-21T16:28:38.943Z,24.17
2023-02-21T16:31:12.556Z,25.43
2023-02-21T16:33:48.644Z,25.63
2023-02-21T16:36:31.699Z,26.65
2023-02-21T16:39:01.279Z,25.90
2023-02-21T16:41:32.141Z,26.57
2023-02-21T16:44:02.054Z,28.40
2023-02-21T16:46:31.236Z,28.55
2023-02-21T16:49:01.220Z,29.17
2023-02-21T16:51:36.071Z,30.20
2023-02-21T16:54:03.951Z,31.27
2023-02-21T16:56:31.162Z,33.03
2023-02-21T16:58:58.579Z,32.92
2023-02-21T17:01:29.910Z,34.25
2023-02-21T17:04:01.624Z,34.08
2023-02-21T17:06:29.392Z,37.47
2023-02-21T17:09:03.080Z,37.88
2023-02-21T17:11:32.684Z,36.72
2023-02-21T17:13:59.942Z,37.77
2023-02-21T17:16:30.298Z,39.60
2023-02-21T17:19:00.349Z,39.60
2023-02-21T17:21:28.522Z,41.20
2023-02-21T17:23:59.193Z,39.45
2023-02-21T17:26:28.793Z,38.33
2023-02-21T17:29:00.979Z,39.70
2023-02-21T17:31:28.279Z,40.17
2023-02-21T17:34:09.718Z,41.60
2023-02-21T17:36:36.905Z,43.10
2023-02-21T17:39:04.335Z,43.08
2023-02-21T17:41:39.695Z,44.88
2023-02-21T17:44:06.862Z,40.47
2023-02-21T17:46:37.417Z,39.45
2023-02-21T17:51:34.189Z,39.75
2023-02-21T17:54:04.520Z,44.00
2023-02-21T17:56:34.434Z,42.45
2023-02-21T17:59:07.207Z,43.92
2023-02-21T18:01:37.213Z,41.10
2023-02-21T18:04:06.244Z,42.63
2023-02-21T18:06:38.168Z,40.08
2023-02-21T18:09:09.267Z,40.85
2023-02-21T18:11:36.393Z,37.65
2023-02-21T18:14:11.621Z,36.72
2023-02-21T18:16:41.409Z,38.53
2023-02-21T18:19:13.836Z,36.75
2023-02-21T18:21:43.701Z,35.95
2023-02-21T18:24:17.809Z,35.90
2023-02-21T18:26:48.364Z,36.63
2023-02-21T18:29:15.602Z,38.35
2023-02-21T18:31:42.922Z,37.13
2023-02-21T18:34:13.200Z,35.40
2023-02-21T18:36:43.846Z,35.70
2023-02-21T18:41:47.827Z,35.28
2023-02-21T18:44:23.436Z,37.88
2023-02-21T18:46:55.717Z,36.22
2023-02-21T18:49:37.671Z,36.70
2023-02-21T18:52:08.905Z,38.83
2023-02-21T18:54:38.205Z,40.65
2023-02-21T18:57:05.378Z,36.63
2023-02-21T19:02:05.981Z,43.10
2023-02-21T19:04:33.830Z,37.40
2023-02-21T19:07:06.073Z,39.70
2023-02-21T19:09:36.685Z,40.70
2023-02-21T19:14:41.884Z,40.53
2023-02-21T19:17:09.397Z,37.72
2023-02-21T19:19:39.346Z,38.25
2023-02-21T19:22:08.253Z,41.03
2023-02-21T19:24:41.127Z,40.17
2023-02-21T19:27:10.699Z,41.65
2023-02-21T19:29:46.913Z,43.20
2023-02-21T19:32:19.132Z,41.10
2023-02-21T19:34:52.580Z,40.20
2023-02-21T19:37:25.172Z,38.95
2023-02-21T19:39:54.821Z,39.33
2023-02-21T19:42:22.008Z,39.73
2023-02-21T19:44:54.244Z,42.65
2023-02-21T19:47:33.068Z,39.55
2023-02-21T19:50:05.400Z,41.10
2023-02-21T19:52:32.622Z,41.72
2023-02-21T19:55:07.048Z,40.25
2023-02-21T19:57:36.874Z,44.13
2023-02-21T20:00:15.493Z,42.22
2023-02-21T20:02:48.340Z,43.25
2023-02-21T20:05:20.251Z,44.83
2023-02-21T20:07:49.373Z,47.35
2023-02-21T20:10:19.716Z,42.33
2023-02-21T20:12:53.359Z,39.42
2023-02-21T20:15:21.126Z,44.38
2023-02-21T20:17:53.718Z,42.17
2023-02-21T20:20:22.727Z,39.88
2023-02-21T20:22:53.165Z,42.25
2023-02-21T20:25:27.249Z,40.95
2023-02-21T20:27:57.308Z,43.13
2023-02-21T20:30:25.604Z,44.47
2023-02-21T20:32:55.472Z,42.33
2023-02-21T20:35:27.920Z,44.67
2023-02-21T20:37:55.150Z,42.92
2023-02-21T20:40:35.076Z,45.03
2023-02-21T20:43:02.252Z,43.92
2023-02-21T20:45:29.354Z,41.90
2023-02-21T20:48:02.994Z,40.15
2023-02-21T20:50:33.154Z,42.95
2023-02-21T20:53:01.257Z,40.17
2023-02-21T20:55:38.659Z,43.85
2023-02-21T20:58:06.213Z,43.47
2023-02-21T21:00:37.745Z,43.30
2023-02-21T21:03:15.030Z,41.97
2023-02-21T21:05:45.224Z,42.00
2023-02-21T21:08:16.350Z,39.75
2023-02-21T21:10:49.659Z,42.13
2023-02-21T21:13:24.740Z,44.58
2023-02-21T21:16:03.935Z,42.75
2023-02-21T21:18:33.436Z,44.10
2023-02-21T21:21:01.891Z,44.67
2023-02-21T21:23:31.822Z,43.47
2023-02-21T21:26:01.973Z,44.85
2023-02-21T21:28:38.745Z,43.67
2023-02-21T21:31:08.925Z,41.47
2023-02-21T21:33:51.686Z,44.60
2023-02-21T21:36:19.166Z,46.03
2023-02-21T21:38:47.073Z,41.38
2023-02-21T21:41:15.164Z,43.80
2023-02-21T21:43:45.416Z,43.78
2023-02-21T21:46:14.512Z,43.17
2023-02-21T21:48:45.185Z,44.65
2023-02-21T21:53:42.677Z,42.28
2023-02-21T21:56:17.428Z,49.05
2023-02-21T21:58:47.088Z,43.33
2023-02-21T22:01:18.807Z,42.30
2023-02-21T22:03:53.357Z,44.53
2023-02-21T22:06:20.524Z,40.05
2023-02-21T22:08:56.203Z,40.75
2023-02-21T22:11:25.953Z,44.83
2023-02-21T22:13:54.899Z,44.75
2023-02-21T22:16:26.864Z,42.25
2023-02-21T22:19:01.192Z,48.58
2023-02-21T22:21:30.547Z,44.00
2023-02-21T22:23:57.712Z,45.90
2023-02-21T22:26:38.564Z,45.33
2023-02-21T22:29:06.276Z,47.05
2023-02-21T22:31:36.755Z,46.03
2023-02-21T22:34:05.518Z,41.90
2023-02-21T22:36:42.002Z,43.28
2023-02-21T22:39:15.051Z,43.95
2023-02-21T22:41:48.581Z,42.33
2023-02-21T22:44:19.265Z,44.85
2023-02-21T22:47:02.123Z,40.92
2023-02-21T22:49:33.493Z,41.22
2023-02-21T22:52:10.482Z,41.75
2023-02-21T22:54:40.666Z,40.85
2023-02-21T22:57:16.320Z,41.50
2023-02-21T22:59:52.562Z,44.78
2023-02-21T23:02:22.531Z,46.40
2023-02-21T23:04:49.777Z,41.58
2023-02-21T23:07:20.759Z,44.42
2023-02-21T23:09:52.631Z,47.55
2023-02-21T23:12:23.529Z,47.97
2023-02-21T23:14:54.062Z,50.05
2023-02-21T23:17:23.764Z,47.30
2023-02-21T23:19:53.866Z,46.28
2023-02-21T23:22:25.121Z,46.53
2023-02-21T23:24:54.856Z,47.72
2023-02-21T23:27:22.051Z,45.72
2023-02-21T23:29:55.660Z,45.10
2023-02-21T23:32:25.292Z,44.78
2023-02-21T23:35:07.042Z,47.73
2023-02-21T23:37:43.149Z,48.85
2023-02-21T23:40:17.201Z,47.97
2023-02-21T23:42:49.485Z,53.30
2023-02-21T23:45:23.174Z,49.92
2023-02-21T23:47:55.401Z,56.28
2023-02-21T23:50:31.651Z,56.58
2023-02-21T23:53:01.648Z,55.35
2023-02-21T23:55:35.659Z,52.95
2023-02-21T23:58:08.830Z,54.65
